Terminal Aerodrome Forecast
Issued by NWS Los Angeles, CA

Home | Current Version | Previous Version | Text Only | Print | Product List | Glossary On
Versions: 1 2 3 4 5 6 7 8 9 10 11 12 13 14 15 16 17 18 19 20 21 22 23 24 25 26 27
000
FTUS46 KLOX 271324 AAA
TAFSMX
TAF AMD
KSMX 271324Z 2713/2812 VRB05KT 6SM BR VCSH BKN006 OVC020
      TEMPO 2713/2714 4SM -RA BR OVC006
     FM271400 33008KT P6SM SCT015 BKN030
     FM271700 32015G25KT P6SM SCT050
     FM272100 32025G33KT P6SM SKC
     FM280300 31016KT P6SM SKC
     FM281100 31011KT P6SM SKC=

USA.gov is the U.S. government's official web portal to all federal, state and local government web resources and services.